Time;durP1;ratioP1;P1;durP2;ratioP2;P2;SDS_P1;SDS_P2;PMS_P1;PMS_P2;Temp;Humidity;BMP_temperature;BMP_pressure;BME280_temperature;BME280_humidity;BME280_pressure;Samples;Min_cycle;Max_cycle;Signal;HPM_P1;HPM_P2
2024/04/03 00:00:03;;;;;;;0.22;0.22;;;8.70;99.90;;;;;;5032548;28;20038;-92
2024/04/03 00:02:29;;;;;;;0.20;0.20;;;8.70;99.90;;;;;;5024199;28;20029;-93
2024/04/03 00:04:54;;;;;;;0.20;0.20;;;8.70;99.90;;;;;;5020665;28;20041;-93
2024/04/03 00:07:20;;;;;;;0.57;0.20;;;8.60;99.90;;;;;;5020970;28;20025;-93
2024/04/03 00:09:46;;;;;;;0.40;0.30;;;8.60;99.90;;;;;;5020009;28;20021;-92
2024/04/03 00:12:12;;;;;;;0.40;0.28;;;8.60;99.90;;;;;;5019883;28;20179;-93
2024/04/03 00:14:41;;;;;;;1.35;0.50;;;8.60;99.90;;;;;;5021124;28;20471;-93
2024/04/03 00:17:07;;;;;;;1.17;0.50;;;8.60;99.90;;;;;;5017987;28;20048;-92
2024/04/03 00:19:33;;;;;;;0.20;0.20;;;8.60;99.90;;;;;;5019470;28;20479;-93
2024/04/03 00:21:59;;;;;;;0.38;0.38;;;8.60;99.90;;;;;;5018959;28;20100;-93
2024/04/03 00:24:25;;;;;;;0.40;0.40;;;8.60;99.90;;;;;;5018544;28;20114;-94
2024/04/03 00:26:50;;;;;;;1.20;0.20;;;8.50;99.90;;;;;;5018616;28;20018;-93
2024/04/03 00:29:16;;;;;;;0.47;0.20;;;8.50;99.90;;;;;;5018484;28;20030;-93
2024/04/03 00:31:42;;;;;;;0.43;0.30;;;8.50;99.90;;;;;;5017268;28;20025;-93
2024/04/03 00:34:08;;;;;;;0.75;0.40;;;8.50;99.90;;;;;;5015879;28;20025;-94
2024/04/03 00:36:34;;;;;;;0.28;0.28;;;8.50;99.90;;;;;;5019332;28;20032;-94
2024/04/03 00:39:02;;;;;;;0.30;0.20;;;8.50;99.90;;;;;;5018871;28;20087;-93
2024/04/03 00:41:29;;;;;;;1.63;0.20;;;8.50;99.90;;;;;;5015755;28;20021;-94
2024/04/03 00:43:55;;;;;;;0.20;0.20;;;8.50;99.90;;;;;;5006028;28;20044;-92
2024/04/03 00:46:21;;;;;;;0.45;0.40;;;8.40;99.90;;;;;;4999000;28;20121;-92
2024/04/03 00:48:48;;;;;;;0.15;0.15;;;8.40;99.90;;;;;;4998348;28;20030;-94
2024/04/03 00:51:15;;;;;;;0.57;0.55;;;8.40;99.90;;;;;;4998398;28;20021;-94
2024/04/03 00:53:40;;;;;;;0.40;0.40;;;8.40;99.90;;;;;;5014620;28;20030;-94
2024/04/03 00:56:07;;;;;;;0.40;0.30;;;8.30;99.90;;;;;;4998202;28;20063;-93
2024/04/03 00:58:34;;;;;;;0.90;0.28;;;8.30;99.90;;;;;;5014410;28;20022;-93
2024/04/03 01:01:00;;;;;;;1.17;0.30;;;8.30;99.90;;;;;;4998146;28;20030;-93
2024/04/03 01:03:26;;;;;;;0.30;0.30;;;8.30;99.90;;;;;;4998458;28;20133;-94
2024/04/03 01:06:03;;;;;;;0.95;0.20;;;8.30;99.90;;;;;;4998063;28;20538;-93
2024/04/03 01:08:29;;;;;;;0.68;0.30;;;8.30;99.90;;;;;;4998076;28;20022;-93
2024/04/03 01:10:59;;;;;;;0.25;0.20;;;8.30;99.90;;;;;;4997876;28;20022;-94
2024/04/03 01:13:26;;;;;;;3.17;0.40;;;8.30;99.90;;;;;;4998319;28;20010;-94
2024/04/03 01:15:58;;;;;;;0.50;0.30;;;8.30;99.90;;;;;;4998108;28;20446;-94
2024/04/03 01:18:24;;;;;;;0.15;0.15;;;8.30;99.90;;;;;;4998105;28;20025;-94
2024/04/03 01:20:50;;;;;;;0.77;0.43;;;8.30;99.90;;;;;;4997694;28;20033;-95
2024/04/03 01:23:15;;;;;;;0.20;0.20;;;8.30;99.90;;;;;;5000396;28;20045;-93
2024/04/03 01:25:41;;;;;;;0.40;0.30;;;8.30;99.90;;;;;;5014855;28;20041;-95
2024/04/03 01:28:07;;;;;;;0.82;0.35;;;8.30;99.90;;;;;;4997274;28;20109;-92
2024/04/03 01:30:33;;;;;;;1.10;0.30;;;8.30;99.90;;;;;;5014204;28;20026;-92
2024/04/03 01:32:58;;;;;;;0.85;0.38;;;8.30;99.90;;;;;;4997673;28;20056;-93
2024/04/03 01:35:24;;;;;;;0.55;0.40;;;8.40;99.90;;;;;;4997681;28;20118;-91
2024/04/03 01:37:50;;;;;;;0.30;0.30;;;8.40;99.90;;;;;;4997497;28;20025;-93
2024/04/03 01:40:16;;;;;;;0.20;0.20;;;8.40;99.90;;;;;;4997109;28;20080;-93
2024/04/03 01:42:41;;;;;;;0.32;0.30;;;8.50;99.90;;;;;;4997276;28;20049;-92
2024/04/03 01:45:07;;;;;;;0.25;0.20;;;8.50;99.90;;;;;;5013818;28;20525;-93
2024/04/03 01:47:33;;;;;;;0.30;0.20;;;8.50;99.90;;;;;;4997760;28;20022;-93
2024/04/03 01:49:59;;;;;;;0.40;0.40;;;8.50;99.90;;;;;;4997140;28;20497;-93
2024/04/03 01:52:25;;;;;;;0.30;0.30;;;8.50;99.90;;;;;;4997436;28;20026;-93
2024/04/03 01:54:51;;;;;;;0.38;0.38;;;8.50;99.90;;;;;;4997303;28;20541;-94
2024/04/03 01:57:17;;;;;;;1.02;0.40;;;8.50;99.90;;;;;;4997010;28;20026;-93
2024/04/03 01:59:43;;;;;;;1.65;0.50;;;8.50;99.90;;;;;;4997349;28;20049;-92
2024/04/03 02:02:08;;;;;;;1.88;0.65;;;8.50;99.90;;;;;;4997401;28;20046;-93
2024/04/03 02:04:34;;;;;;;0.85;0.60;;;8.60;99.90;;;;;;4996929;28;21121;-93
2024/04/03 02:07:00;;;;;;;1.00;0.80;;;8.60;99.90;;;;;;4996888;28;20018;-92
2024/04/03 02:09:25;;;;;;;1.17;0.80;;;8.50;99.90;;;;;;4997061;28;20030;-92
2024/04/03 02:11:51;;;;;;;0.85;0.82;;;8.60;99.90;;;;;;5000875;28;20125;-92
2024/04/03 02:14:17;;;;;;;1.30;0.88;;;8.60;99.90;;;;;;4998546;28;20113;-93
2024/04/03 02:16:43;;;;;;;0.85;0.85;;;8.60;99.90;;;;;;4997686;28;20022;-92
2024/04/03 02:19:09;;;;;;;1.10;0.90;;;8.50;99.90;;;;;;4996724;28;20030;-92
2024/04/03 02:21:35;;;;;;;1.48;1.10;;;8.60;99.90;;;;;;4996430;28;20068;-93
2024/04/03 02:24:03;;;;;;;1.38;1.00;;;8.60;99.90;;;;;;4996714;28;20021;-93
2024/04/03 02:26:29;;;;;;;1.60;1.17;;;8.60;99.90;;;;;;4997497;28;20125;-93
2024/04/03 02:28:54;;;;;;;1.50;1.17;;;8.60;99.90;;;;;;4998081;28;20025;-94
2024/04/03 02:31:20;;;;;;;1.20;0.80;;;8.60;99.90;;;;;;5006363;28;20488;-93
2024/04/03 02:33:46;;;;;;;1.63;1.10;;;8.60;99.90;;;;;;4998475;28;20100;-93
2024/04/03 02:36:13;;;;;;;0.80;0.80;;;8.60;99.90;;;;;;5013893;28;20036;-92
2024/04/03 02:38:39;;;;;;;1.00;0.90;;;8.60;99.90;;;;;;5017415;28;20069;-93
2024/04/03 02:41:06;;;;;;;0.95;0.57;;;8.60;99.90;;;;;;5020336;28;20052;-92
2024/04/03 02:43:32;;;;;;;0.57;0.57;;;8.70;99.90;;;;;;5026028;28;20050;-92
2024/04/03 02:45:58;;;;;;;3.15;0.68;;;8.70;99.90;;;;;;5050302;28;20053;-93
2024/04/03 02:48:24;;;;;;;1.48;1.02;;;8.70;99.90;;;;;;5025050;28;20376;-92
2024/04/03 02:51:10;;;;;;;1.67;0.80;;;8.70;99.90;;;;;;5013688;28;20064;-91
2024/04/03 02:53:36;;;;;;;1.13;0.57;;;8.70;99.90;;;;;;5009484;28;20021;-92
2024/04/03 02:56:05;;;;;;;0.73;0.70;;;8.70;99.90;;;;;;5018182;28;20034;-93
2024/04/03 02:58:30;;;;;;;0.50;0.47;;;8.70;99.90;;;;;;5016597;28;20030;-91
2024/04/03 03:01:09;;;;;;;0.50;0.47;;;8.80;99.90;;;;;;5020306;28;20022;-93
2024/04/03 03:03:35;;;;;;;0.77;0.47;;;8.80;99.90;;;;;;5008232;28;20018;-91
2024/04/03 03:06:03;;;;;;;0.75;0.63;;;8.80;99.90;;;;;;5005005;28;20120;-92
2024/04/03 03:08:33;;;;;;;0.50;0.50;;;8.80;99.90;;;;;;5018159;28;20038;-92
2024/04/03 03:11:03;;;;;;;0.65;0.60;;;8.80;99.90;;;;;;5018607;28;20029;-92
2024/04/03 03:13:29;;;;;;;1.23;0.77;;;8.80;99.90;;;;;;5034062;28;20100;-93
2024/04/03 03:15:57;;;;;;;0.55;0.50;;;8.90;99.90;;;;;;5013450;28;20026;-92
2024/04/03 03:18:26;;;;;;;2.33;1.10;;;8.90;99.90;;;;;;5005873;28;20037;-92
2024/04/03 03:20:52;;;;;;;1.33;0.70;;;8.90;99.90;;;;;;4991550;28;20038;-92
2024/04/03 03:23:19;;;;;;;2.33;1.08;;;8.90;99.90;;;;;;5018362;28;20049;-92
2024/04/03 03:25:51;;;;;;;3.65;0.85;;;8.90;99.90;;;;;;5033571;28;20030;-92
2024/04/03 03:28:18;;;;;;;2.53;1.15;;;8.90;99.90;;;;;;5001388;28;20029;-92
2024/04/03 03:30:52;;;;;;;1.20;1.10;;;8.90;99.90;;;;;;5019982;28;20129;-92
2024/04/03 03:33:19;;;;;;;1.48;1.10;;;8.90;99.90;;;;;;5027155;28;20013;-92
2024/04/03 03:35:57;;;;;;;0.80;0.75;;;8.90;99.90;;;;;;5027953;28;20037;-92
2024/04/03 03:38:30;;;;;;;2.00;1.02;;;8.90;99.90;;;;;;5020953;28;20018;-92
2024/04/03 03:40:59;;;;;;;2.13;1.45;;;9.00;99.90;;;;;;5034339;28;20034;-93
2024/04/03 03:43:25;;;;;;;1.98;1.30;;;9.00;99.90;;;;;;4997800;28;20049;-93
2024/04/03 03:45:53;;;;;;;2.13;1.10;;;9.00;99.90;;;;;;5020205;28;20466;-91
2024/04/03 03:52:36;;;;;;;2.67;1.40;;;9.00;99.90;;;;;;5003333;28;20044;-92
2024/04/03 03:54:01;;;;;;;1.92;1.55;;;9.00;99.90;;;;;;5034942;28;20058;-93
2024/04/03 03:56:37;;;;;;;2.33;1.42;;;9.00;99.90;;;;;;5019164;28;20040;-91
2024/04/03 03:59:04;;;;;;;1.33;1.10;;;9.00;99.90;;;;;;5001817;28;20049;-93
2024/04/03 04:01:35;;;;;;;2.47;1.88;;;9.10;99.90;;;;;;5019055;28;20013;-93
2024/04/03 04:04:12;;;;;;;2.72;1.98;;;9.10;99.90;;;;;;5034754;28;20458;-91
2024/04/03 04:06:40;;;;;;;2.08;1.60;;;9.10;99.90;;;;;;4986605;28;20033;-92
2024/04/03 04:09:09;;;;;;;2.70;2.03;;;9.10;99.90;;;;;;5035467;28;20076;-92
2024/04/03 04:11:35;;;;;;;2.83;2.17;;;9.10;99.90;;;;;;5002371;28;20486;-91
2024/04/03 04:14:04;;;;;;;3.80;2.08;;;9.20;99.90;;;;;;4999973;28;20030;-91
2024/04/03 04:16:30;;;;;;;3.88;2.13;;;9.20;99.90;;;;;;5041116;28;20021;-91
2024/04/03 04:18:58;;;;;;;3.70;2.42;;;9.20;99.90;;;;;;5020416;28;20517;-91
2024/04/03 04:21:24;;;;;;;3.25;2.70;;;9.20;99.90;;;;;;5000435;28;20025;-93
2024/04/03 04:23:50;;;;;;;4.15;2.63;;;9.20;99.90;;;;;;5017836;28;20028;-91
2024/04/03 04:26:19;;;;;;;3.28;2.22;;;9.20;99.90;;;;;;5017924;28;20045;-94
2024/04/03 04:28:48;;;;;;;4.63;3.15;;;9.30;99.90;;;;;;5017908;28;20099;-93
2024/04/03 04:31:14;;;;;;;6.55;2.72;;;9.30;99.90;;;;;;5018332;28;20036;-92
2024/04/03 04:33:40;;;;;;;4.93;3.05;;;9.30;99.90;;;;;;5001926;28;20017;-92
2024/04/03 04:36:06;;;;;;;4.20;2.60;;;9.30;99.90;;;;;;5017926;28;20029;-90
2024/04/03 04:38:35;;;;;;;5.38;2.60;;;9.30;99.90;;;;;;5018195;28;20017;-92
2024/04/03 04:41:05;;;;;;;4.38;2.83;;;9.40;99.90;;;;;;5017786;28;20362;-92
2024/04/03 04:43:32;;;;;;;6.88;3.45;;;9.40;99.90;;;;;;5017752;28;20368;-93
2024/04/03 04:45:59;;;;;;;6.65;3.03;;;9.40;99.90;;;;;;5017369;28;20061;-90
2024/04/03 04:48:26;;;;;;;5.80;2.58;;;9.40;99.90;;;;;;5001445;28;20021;-91
2024/04/03 04:50:53;;;;;;;5.93;3.35;;;9.40;99.90;;;;;;5017600;28;20081;-92
2024/04/03 04:53:19;;;;;;;6.88;2.72;;;9.50;99.90;;;;;;5018109;28;20022;-93
2024/04/03 04:56:00;;;;;;;4.47;3.22;;;9.50;99.90;;;;;;5017985;28;20108;-94
2024/04/03 04:58:27;;;;;;;;;;;9.50;99.90;;;;;;5014394;28;20029;-93
2024/04/03 05:01:07;;;;;;;5.72;3.08;;;9.50;99.90;;;;;;5017857;28;19912;-93
2024/04/03 05:03:37;;;;;;;4.63;3.17;;;9.50;99.90;;;;;;5010573;28;20482;-92
2024/04/03 05:06:13;;;;;;;4.43;3.10;;;9.50;99.90;;;;;;5033230;28;20041;-93
2024/04/03 05:08:39;;;;;;;5.68;3.53;;;9.50;99.90;;;;;;5017810;28;20059;-93
2024/04/03 05:11:05;;;;;;;7.63;4.00;;;9.50;99.90;;;;;;5017406;28;20026;-93
2024/04/03 05:13:33;;;;;;;4.97;3.13;;;9.60;99.90;;;;;;5018003;28;20013;-94
2024/04/03 05:16:06;;;;;;;6.72;4.13;;;9.60;99.90;;;;;;5018290;28;20118;-92
2024/04/03 05:18:32;;;;;;;6.50;4.35;;;9.60;99.90;;;;;;5018129;28;20038;-93
2024/04/03 05:20:58;;;;;;;8.60;4.55;;;9.60;99.90;;;;;;5029101;28;20018;-93
2024/04/03 05:23:26;;;;;;;9.35;4.55;;;9.60;99.90;;;;;;5034462;28;20023;-95
2024/04/03 05:26:00;;;;;;;11.80;5.03;;;9.60;99.90;;;;;;5034715;28;20041;-93
2024/04/03 05:28:26;;;;;;;14.13;5.47;;;9.60;99.90;;;;;;5029921;28;20025;-93
2024/04/03 05:30:55;;;;;;;9.02;4.28;;;9.60;99.90;;;;;;5032918;28;20076;-94
2024/04/03 05:33:22;;;;;;;9.23;5.72;;;9.60;99.90;;;;;;5032347;28;20029;-93
2024/04/03 05:35:59;;;;;;;19.65;6.30;;;9.60;99.90;;;;;;5006620;28;20030;-92
2024/04/03 05:38:26;;;;;;;12.10;5.80;;;9.70;99.90;;;;;;5002337;28;20026;-93
2024/04/03 05:40:54;;;;;;;10.10;5.45;;;9.70;99.90;;;;;;4984134;28;20125;-93
2024/04/03 05:43:21;;;;;;;13.38;6.22;;;9.80;99.90;;;;;;4982586;28;20054;-94
2024/04/03 05:45:47;;;;;;;7.95;4.70;;;9.80;99.90;;;;;;4980514;28;20057;-92
2024/04/03 05:48:17;;;;;;;12.48;5.95;;;9.80;99.90;;;;;;4964263;28;20476;-94
2024/04/03 05:50:43;;;;;;;13.32;5.45;;;9.80;99.90;;;;;;4963261;28;20049;-92
2024/04/03 05:53:08;;;;;;;11.30;5.90;;;9.80;99.90;;;;;;4978726;28;20023;-92
2024/04/03 05:55:34;;;;;;;11.75;5.57;;;9.80;99.90;;;;;;4978446;28;20117;-92
2024/04/03 05:58:08;;;;;;;14.00;6.55;;;9.80;99.90;;;;;;4979088;28;20030;-93
2024/04/03 06:00:36;;;;;;;12.52;6.18;;;9.80;99.90;;;;;;4978777;28;20480;-92
2024/04/03 06:03:03;;;;;;;12.88;6.55;;;9.80;99.90;;;;;;4978039;28;20038;-93
2024/04/03 06:05:31;;;;;;;14.35;5.38;;;9.80;99.90;;;;;;4978225;28;20065;-92
2024/04/03 06:07:59;;;;;;;10.57;4.80;;;9.80;99.90;;;;;;4994210;28;20037;-91
2024/04/03 06:10:36;;;;;;;15.32;5.70;;;9.80;99.90;;;;;;4977828;28;20018;-91
2024/04/03 06:13:07;;;;;;;13.90;6.57;;;9.80;99.90;;;;;;4977934;28;20042;-93
2024/04/03 06:15:34;;;;;;;11.77;6.22;;;9.80;99.90;;;;;;4976306;28;20117;-93
2024/04/03 06:18:01;;;;;;;13.63;5.40;;;9.80;99.90;;;;;;4979716;28;20062;-93
2024/04/03 06:20:27;;;;;;;17.65;5.72;;;9.80;99.90;;;;;;5010253;28;20041;-94
2024/04/03 06:22:53;;;;;;;12.00;5.55;;;9.80;99.90;;;;;;5017930;28;20033;-94
2024/04/03 06:25:19;;;;;;;7.68;5.00;;;9.80;99.90;;;;;;5017340;28;20033;-92
2024/04/03 06:27:46;;;;;;;9.35;4.40;;;9.80;99.90;;;;;;5016209;28;20044;-92
2024/04/03 06:30:12;;;;;;;9.50;4.97;;;9.80;99.90;;;;;;5015697;28;20030;-93
2024/04/03 06:32:38;;;;;;;10.75;5.80;;;9.80;99.90;;;;;;5016623;28;20097;-92
2024/04/03 06:35:04;;;;;;;10.60;5.35;;;9.80;99.90;;;;;;5016263;28;20026;-93
2024/04/03 06:37:30;;;;;;;12.02;4.70;;;9.80;99.90;;;;;;5016074;28;20099;-93
2024/04/03 06:39:56;;;;;;;9.77;4.38;;;9.80;99.90;;;;;;5016635;28;20029;-93
2024/04/03 06:42:22;;;;;;;12.88;5.32;;;9.80;99.90;;;;;;5031661;28;20079;-94
2024/04/03 06:44:50;;;;;;;15.43;5.70;;;9.80;99.90;;;;;;5007340;28;20686;-92
2024/04/03 06:47:17;;;;;;;14.40;5.97;;;9.80;99.90;;;;;;5011100;28;20026;-93
2024/04/03 06:49:47;;;;;;;11.25;5.50;;;9.80;99.90;;;;;;5012590;28;20489;-93
2024/04/03 06:52:13;;;;;;;15.05;5.45;;;9.80;99.90;;;;;;5009775;28;20014;-92
2024/04/03 06:54:38;;;;;;;8.82;4.80;;;9.80;99.90;;;;;;5012172;28;20026;-92
2024/04/03 06:57:05;;;;;;;10.25;4.93;;;9.90;99.90;;;;;;5008128;28;20499;-92
2024/04/03 06:59:31;;;;;;;8.38;4.65;;;9.90;99.90;;;;;;5005076;28;20033;-91
2024/04/03 07:01:57;;;;;;;14.32;5.28;;;9.90;99.90;;;;;;5013906;28;20026;-93
2024/04/03 07:04:28;;;;;;;9.73;5.10;;;9.90;99.90;;;;;;5012441;28;20030;-93
2024/04/03 07:07:01;;;;;;;16.80;5.13;;;10.00;99.90;;;;;;5012579;28;20080;-92
2024/04/03 07:09:30;;;;;;;11.50;5.20;;;10.00;99.90;;;;;;5011510;28;20109;-93
2024/04/03 07:11:56;;;;;;;11.77;4.50;;;10.00;99.90;;;;;;5012829;28;20411;-91
2024/04/03 07:14:21;;;;;;;14.65;4.80;;;10.10;99.90;;;;;;5011610;28;20061;-92
2024/04/03 07:16:48;;;;;;;11.40;4.07;;;10.00;99.90;;;;;;5012575;28;20045;-92
2024/04/03 07:19:14;;;;;;;15.82;4.78;;;10.10;99.90;;;;;;5012823;28;20018;-92
2024/04/03 07:21:43;;;;;;;13.77;4.40;;;10.10;99.90;;;;;;5012227;28;20029;-93
2024/04/03 07:24:09;;;;;;;12.63;4.43;;;10.10;99.90;;;;;;5011539;28;20042;-93
2024/04/03 07:26:35;;;;;;;9.93;4.28;;;10.20;99.90;;;;;;5006497;28;20042;-93
2024/04/03 07:29:01;;;;;;;10.35;4.10;;;10.20;99.90;;;;;;5030403;28;20022;-89
2024/04/03 07:31:27;;;;;;;8.85;4.72;;;10.20;99.90;;;;;;5025362;28;20022;-92
2024/04/03 07:33:57;;;;;;;10.88;4.38;;;10.20;99.90;;;;;;5021989;28;20542;-92
2024/04/03 07:36:25;;;;;;;9.80;4.68;;;10.20;99.90;;;;;;5025969;28;20024;-94
2024/04/03 07:38:52;;;;;;;16.10;4.40;;;10.30;99.90;;;;;;5022181;28;20026;-93
2024/04/03 07:41:28;;;;;;;10.45;3.40;;;10.30;99.90;;;;;;5017308;28;20033;-93
2024/04/03 07:43:54;;;;;;;11.20;3.00;;;10.30;99.90;;;;;;4994325;28;20061;-93
2024/04/03 07:46:21;;;;;;;11.20;3.00;;;10.30;99.90;;;;;;5016458;28;20028;-93
2024/04/03 07:48:47;;;;;;;13.38;3.20;;;10.30;99.90;;;;;;4999362;28;20376;-91
2024/04/03 07:51:13;;;;;;;10.80;3.40;;;10.30;99.90;;;;;;4999126;28;20044;-91
2024/04/03 07:53:39;;;;;;;9.52;2.85;;;10.30;99.90;;;;;;4999036;28;20116;-91
2024/04/03 07:56:05;;;;;;;7.40;2.70;;;10.30;99.90;;;;;;4982922;28;20042;-92
2024/04/03 07:58:31;;;;;;;6.18;2.20;;;10.40;99.90;;;;;;5015138;28;20034;-93
2024/04/03 08:00:58;;;;;;;9.45;2.00;;;10.40;99.90;;;;;;5000096;28;20442;-92
2024/04/03 08:03:24;;;;;;;4.70;1.48;;;10.40;99.90;;;;;;4985454;28;20068;-93
2024/04/03 08:06:00;;;;;;;10.93;1.85;;;10.40;99.90;;;;;;5003704;28;20029;-93
2024/04/03 08:08:28;;;;;;;7.75;1.73;;;10.40;99.90;;;;;;5019884;28;20025;-93
2024/04/03 08:11:05;;;;;;;8.10;1.83;;;10.40;99.90;;;;;;5021379;28;20042;-92
2024/04/03 08:13:35;;;;;;;8.80;1.90;;;10.40;99.90;;;;;;5035662;28;20114;-92
2024/04/03 08:16:04;;;;;;;8.23;1.77;;;10.40;99.90;;;;;;5013484;28;20059;-92
2024/04/03 08:18:31;;;;;;;9.15;1.88;;;10.40;99.90;;;;;;5004259;28;20026;-94
2024/04/03 08:21:10;;;;;;;7.85;2.00;;;10.50;99.90;;;;;;5006908;28;20018;-93
2024/04/03 08:23:36;;;;;;;9.82;2.05;;;10.50;99.90;;;;;;4990735;28;20113;-93
2024/04/03 08:26:07;;;;;;;5.55;1.70;;;10.50;99.90;;;;;;5005009;28;20042;-93
2024/04/03 08:28:36;;;;;;;;;;;10.60;99.90;;;;;;5018076;28;20022;-92
2024/04/03 08:31:02;;;;;;;9.35;1.70;;;10.60;99.90;;;;;;5021381;28;20020;-93
2024/04/03 08:33:28;;;;;;;11.07;2.03;;;10.60;99.90;;;;;;5002207;28;20048;-91
2024/04/03 08:36:02;;;;;;;14.88;2.30;;;10.60;99.90;;;;;;5000254;28;20112;-91
2024/04/03 08:38:34;;;;;;;10.95;1.92;;;10.60;99.90;;;;;;4998219;28;20562;-93
2024/04/03 08:41:02;;;;;;;11.18;2.20;;;10.60;99.90;;;;;;4999087;28;20034;-92
2024/04/03 08:43:28;;;;;;;12.32;2.10;;;10.60;99.90;;;;;;5002774;28;20042;-90
2024/04/03 08:46:00;;;;;;;8.88;2.03;;;10.60;99.90;;;;;;5002051;28;20140;-93
2024/04/03 08:48:27;;;;;;;10.27;1.88;;;10.60;99.90;;;;;;5017398;28;20026;-92
2024/04/03 08:50:53;;;;;;;9.00;1.88;;;10.60;99.90;;;;;;4986655;28;20056;-94
2024/04/03 08:53:20;;;;;;;10.98;1.83;;;10.60;99.90;;;;;;5020624;28;20515;-93
2024/04/03 08:55:48;;;;;;;13.75;2.70;;;10.60;99.90;;;;;;5018194;28;20436;-93
2024/04/03 08:58:15;;;;;;;13.85;2.10;;;10.70;99.90;;;;;;5016105;28;20025;-93
2024/04/03 09:00:43;;;;;;;14.40;2.40;;;10.70;99.90;;;;;;5015997;28;20031;-94
2024/04/03 09:03:14;;;;;;;12.10;2.28;;;10.80;99.90;;;;;;5016514;28;20022;-93
2024/04/03 09:05:40;;;;;;;;;;;10.90;99.90;;;;;;5016271;28;20033;-93
2024/04/03 09:08:07;;;;;;;7.93;1.63;;;11.00;99.90;;;;;;5015926;28;20321;-94
2024/04/03 09:13:19;;;;;;;6.10;2.55;;;11.10;99.90;;;;;;5032792;28;20045;-94
2024/04/03 09:15:45;;;;;;;10.85;1.77;;;11.20;99.90;;;;;;5016663;28;20030;-93
2024/04/03 09:18:11;;;;;;;7.30;1.55;;;11.30;99.90;;;;;;5016068;28;20021;-94
2024/04/03 09:20:41;;;;;;;15.68;1.95;;;11.30;99.90;;;;;;4999716;28;20030;-93
2024/04/03 09:23:09;;;;;;;11.73;1.50;;;11.30;99.90;;;;;;5015849;28;20033;-94
2024/04/03 09:25:36;;;;;;;9.15;2.55;;;11.30;99.90;;;;;;5033662;28;20034;-92
2024/04/03 09:30:47;;;;;;;6.80;1.55;;;11.40;99.90;;;;;;5036892;23;20046;-77
2024/04/03 09:33:14;;;;;;;8.02;1.00;;;11.40;99.90;;;;;;5028045;28;20123;-79
2024/04/03 09:35:41;;;;;;;5.53;0.45;;;11.40;99.90;;;;;;5030536;28;20021;-78
2024/04/03 09:38:10;;;;;;;5.50;0.50;;;11.30;99.90;;;;;;5030479;28;20485;-78
2024/04/03 09:40:37;;;;;;;2.67;0.40;;;11.30;99.90;;;;;;5030988;28;20077;-80
2024/04/03 09:43:07;;;;;;;4.03;0.63;;;11.40;99.90;;;;;;5031245;28;20025;-85
2024/04/03 09:45:34;;;;;;;2.83;0.73;;;11.50;99.90;;;;;;5029088;28;20033;-84
2024/04/03 09:48:02;;;;;;;2.95;0.68;;;11.60;99.90;;;;;;5029504;28;20063;-83
2024/04/03 09:50:44;;;;;;;5.43;1.10;;;11.70;99.90;;;;;;5031382;28;20030;-84
2024/04/03 09:53:17;;;;;;;2.67;0.77;;;11.80;99.90;;;;;;5029799;28;20052;-85
2024/04/03 09:55:46;;;;;;;7.38;1.35;;;12.00;99.90;;;;;;5029768;28;20029;-79
2024/04/03 09:58:14;;;;;;;5.03;0.88;;;12.00;99.90;;;;;;5029939;28;20431;-79
2024/04/03 10:00:49;;;;;;;12.45;1.23;;;12.20;99.90;;;;;;5030331;28;20425;-78
2024/04/03 10:03:36;;;;;;;4.53;0.90;;;12.40;99.90;;;;;;5027109;28;20504;-78
2024/04/03 10:06:13;;;;;;;6.03;0.98;;;12.50;99.90;;;;;;5028003;28;20507;-78
2024/04/03 10:08:41;;;;;;;3.00;1.10;;;12.60;99.90;;;;;;5030184;28;20026;-79
2024/04/03 10:11:07;;;;;;;4.80;1.08;;;12.60;99.90;;;;;;5030653;28;20113;-83
2024/04/03 10:13:35;;;;;;;5.78;1.35;;;12.60;99.90;;;;;;5030693;28;20258;-77
2024/04/03 10:16:05;;;;;;;4.25;1.05;;;12.60;99.90;;;;;;5031887;28;20028;-77
2024/04/03 10:18:51;;;;;;;3.53;0.90;;;12.50;99.90;;;;;;5027464;28;20017;-78
2024/04/03 10:21:18;;;;;;;3.47;1.10;;;12.50;99.90;;;;;;5030005;28;20032;-79
2024/04/03 10:23:49;;;;;;;7.97;0.80;;;12.50;99.90;;;;;;5030457;28;20034;-82
2024/04/03 10:26:16;;;;;;;3.58;0.88;;;12.40;99.90;;;;;;5029165;28;20091;-83
2024/04/03 10:28:45;;;;;;;3.92;0.80;;;12.40;99.90;;;;;;5030575;28;20048;-84
2024/04/03 10:31:20;;;;;;;3.50;0.63;;;12.50;99.90;;;;;;5030545;28;20029;-83
2024/04/03 10:33:50;;;;;;;5.90;0.88;;;12.40;99.90;;;;;;5029793;28;20445;-86
2024/04/03 10:36:19;;;;;;;4.20;0.88;;;12.40;99.90;;;;;;5029131;28;20101;-86
2024/04/03 10:38:45;;;;;;;1.90;0.75;;;12.30;99.90;;;;;;5030047;28;20070;-85
2024/04/03 10:41:12;;;;;;;5.22;0.60;;;12.20;99.90;;;;;;5032117;28;20030;-84
2024/04/03 10:43:38;;;;;;;2.92;0.88;;;12.20;99.90;;;;;;5030253;28;20065;-84
2024/04/03 10:46:05;;;;;;;2.70;0.80;;;12.10;99.90;;;;;;5030451;28;20073;-83
2024/04/03 10:48:31;;;;;;;0.75;0.50;;;12.00;99.90;;;;;;5029640;28;20029;-77
2024/04/03 10:50:57;;;;;;;2.88;0.90;;;11.90;99.90;;;;;;5030027;28;20525;-79
2024/04/03 10:53:24;;;;;;;1.83;0.73;;;11.80;99.90;;;;;;5031368;28;20030;-78
2024/04/03 10:55:50;;;;;;;4.28;0.82;;;11.70;99.90;;;;;;5031382;28;20026;-81
2024/04/03 10:58:16;;;;;;;2.92;1.00;;;11.60;99.90;;;;;;5030283;28;20064;-79
2024/04/03 11:00:45;;;;;;;4.50;1.02;;;11.60;99.90;;;;;;5031356;28;20025;-80
2024/04/03 11:03:11;;;;;;;2.60;0.80;;;11.50;99.90;;;;;;5035174;28;20025;-78
2024/04/03 11:05:38;;;;;;;7.90;1.15;;;11.50;99.90;;;;;;5033891;28;20043;-79
2024/04/03 11:08:09;;;;;;;1.98;0.93;;;11.50;99.90;;;;;;5034124;28;20030;-79
2024/04/03 11:10:36;;;;;;;3.25;1.00;;;11.50;99.90;;;;;;5035448;28;20453;-79
2024/04/03 11:13:09;;;;;;;2.72;0.95;;;11.60;99.90;;;;;;5035353;28;20037;-83
2024/04/03 11:15:38;;;;;;;1.75;0.95;;;11.60;99.90;;;;;;5048222;28;20056;-77
2024/04/03 11:18:04;;;;;;;4.53;0.80;;;11.60;99.90;;;;;;5054522;28;20025;-78
2024/04/03 11:20:32;;;;;;;2.90;0.80;;;11.70;99.90;;;;;;5054543;28;20467;-80
2024/04/03 11:23:01;;;;;;;5.00;0.90;;;11.80;99.90;;;;;;5044679;28;20064;-80
2024/04/03 11:25:31;;;;;;;2.20;0.90;;;11.90;99.90;;;;;;5034148;28;20038;-79
2024/04/03 11:28:03;;;;;;;4.72;1.10;;;12.00;99.90;;;;;;5033596;28;20033;-78
2024/04/03 11:30:29;;;;;;;1.50;0.80;;;12.00;99.90;;;;;;5030565;28;20129;-78
2024/04/03 11:32:55;;;;;;;2.05;0.70;;;12.10;99.90;;;;;;5031769;28;20132;-80
2024/04/03 11:35:22;;;;;;;2.28;0.80;;;12.10;99.90;;;;;;5034467;28;20112;-81
2024/04/03 11:37:49;;;;;;;2.60;1.00;;;12.10;99.90;;;;;;5026799;28;20076;-81
2024/04/03 11:40:15;;;;;;;3.20;0.88;;;12.10;99.90;;;;;;5031968;28;20030;-83
2024/04/03 11:42:41;;;;;;;1.23;0.50;;;12.10;99.90;;;;;;5014516;28;20022;-79
2024/04/03 11:45:07;;;;;;;7.35;3.65;;;12.10;99.90;;;;;;5030972;28;20033;-83
2024/04/03 11:47:33;;;;;;;8.07;3.78;;;12.10;99.90;;;;;;5031002;28;20039;-81
2024/04/03 11:50:04;;;;;;;3.40;2.08;;;12.00;99.90;;;;;;5031258;28;20029;-81
2024/04/03 11:52:30;;;;;;;2.83;1.23;;;12.00;99.90;;;;;;5031753;28;20116;-81
2024/04/03 11:54:56;;;;;;;2.42;1.50;;;12.10;99.90;;;;;;5034209;28;20072;-82
2024/04/03 11:57:22;;;;;;;1.25;1.15;;;12.20;99.90;;;;;;5032135;28;20025;-83
2024/04/03 11:59:49;;;;;;;3.05;0.82;;;12.30;99.90;;;;;;5033844;28;20218;-83
2024/04/03 12:02:14;;;;;;;1.17;1.08;;;12.40;99.90;;;;;;5031987;28;20107;-82
2024/04/03 12:04:42;;;;;;;1.60;0.80;;;12.50;99.90;;;;;;5032711;28;20044;-81
2024/04/03 12:07:10;;;;;;;1.33;1.00;;;12.50;99.90;;;;;;5032551;28;20025;-83
2024/04/03 12:09:37;;;;;;;3.42;1.20;;;12.40;99.90;;;;;;5031402;28;20465;-83
2024/04/03 12:12:05;;;;;;;0.95;0.80;;;12.30;99.90;;;;;;5030590;28;20559;-83
2024/04/03 12:14:32;;;;;;;4.55;0.80;;;12.30;99.90;;;;;;5031792;28;20026;-81
2024/04/03 12:17:02;;;;;;;1.77;0.77;;;12.30;99.90;;;;;;5030360;28;20536;-79
2024/04/03 12:20:04;;;;;;;1.20;0.50;;;12.30;99.90;;;;;;5028259;28;20546;-79
2024/04/03 12:22:30;;;;;;;1.55;0.40;;;12.20;99.90;;;;;;5030377;28;20120;-80
2024/04/03 12:24:56;;;;;;;1.63;0.70;;;12.30;99.90;;;;;;5031273;28;20129;-80
2024/04/03 12:27:23;;;;;;;0.82;0.57;;;12.40;99.90;;;;;;5030570;28;20021;-78
2024/04/03 12:29:51;;;;;;;0.65;0.57;;;12.50;99.90;;;;;;5028256;28;20072;-83
2024/04/03 12:32:18;;;;;;;1.42;0.63;;;12.80;99.90;;;;;;5033062;28;20059;-78
2024/04/03 12:34:45;;;;;;;0.73;0.60;;;13.10;99.90;;;;;;5032636;28;20069;-79
2024/04/03 12:37:10;;;;;;;0.70;0.63;;;13.30;99.90;;;;;;5030718;28;20029;-81
2024/04/03 12:39:38;;;;;;;0.45;0.35;;;13.50;99.90;;;;;;5030130;28;20504;-80
2024/04/03 12:42:03;;;;;;;1.58;0.32;;;13.70;99.90;;;;;;5030913;28;20183;-86
2024/04/03 12:44:29;;;;;;;0.82;0.43;;;13.90;99.90;;;;;;5028736;28;20548;-85
2024/04/03 12:46:55;;;;;;;0.35;0.35;;;13.90;99.90;;;;;;5029782;28;20033;-83
2024/04/03 12:49:24;;;;;;;0.50;0.50;;;13.80;99.90;;;;;;5030548;28;20179;-78
2024/04/03 12:51:50;;;;;;;0.93;0.68;;;13.70;99.90;;;;;;5031321;28;20022;-82
2024/04/03 12:54:19;;;;;;;0.50;0.50;;;13.60;99.90;;;;;;5031126;28;20108;-78
2024/04/03 12:56:45;;;;;;;0.50;0.50;;;13.60;99.90;;;;;;5031263;28;20052;-83
2024/04/03 12:59:12;;;;;;;0.65;0.40;;;13.60;99.90;;;;;;5032728;28;20013;-85
2024/04/03 13:01:38;;;;;;;0.50;0.40;;;13.70;99.90;;;;;;5030066;28;20116;-76